createdAt,value
2019-01-20T00:00:00.247Z,1008.8
2019-01-20T00:01:02.443Z,1008.8
2019-01-20T00:02:04.563Z,1008.8
2019-01-20T00:03:06.977Z,1008.8
2019-01-20T00:04:09.088Z,1008.8
2019-01-20T00:05:11.185Z,1008.7
2019-01-20T00:06:13.609Z,1008.8
2019-01-20T00:07:15.712Z,1008.8
2019-01-20T00:08:17.838Z,1008.8
2019-01-20T00:09:19.978Z,1008.7
2019-01-20T00:10:22.086Z,1008.8
2019-01-20T00:11:24.462Z,1008.8
2019-01-20T00:12:27.132Z,1008.7
2019-01-20T00:13:29.220Z,1008.7
2019-01-20T00:14:31.245Z,1008.7
2019-01-20T00:15:33.259Z,1008.7
2019-01-20T00:16:35.278Z,1008.7
2019-01-20T00:17:37.313Z,1008.7
2019-01-20T00:18:39.347Z,1008.6
2019-01-20T00:19:41.379Z,1008.7
2019-01-20T00:20:43.397Z,1008.7
2019-01-20T00:21:45.998Z,1008.7
2019-01-20T00:22:48.029Z,1008.7
2019-01-20T00:23:50.043Z,1008.7
2019-01-20T00:24:52.068Z,1008.7
2019-01-20T00:25:54.379Z,1008.6
2019-01-20T00:26:56.391Z,1008.6
2019-01-20T00:27:58.705Z,1008.7
2019-01-20T00:29:00.728Z,1008.7
2019-01-20T00:30:03.059Z,1008.7
2019-01-20T00:31:05.088Z,1008.6
2019-01-20T00:32:07.116Z,1008.6
2019-01-20T00:33:09.129Z,1008.6
2019-01-20T00:34:11.321Z,1008.7
2019-01-20T00:35:13.677Z,1008.6
2019-01-20T00:36:17.542Z,1008.6
2019-01-20T00:37:19.563Z,1008.7
2019-01-20T00:38:21.589Z,1008.6
2019-01-20T00:39:23.599Z,1008.6
2019-01-20T00:40:25.921Z,1008.7
2019-01-20T00:41:28.224Z,1008.7
2019-01-20T00:42:30.621Z,1008.7
2019-01-20T00:43:32.652Z,1008.6
2019-01-20T00:44:34.672Z,1008.6
2019-01-20T00:45:36.690Z,1008.7
2019-01-20T00:46:38.708Z,1008.6
2019-01-20T00:47:40.733Z,1008.7
2019-01-20T00:48:42.747Z,1008.6
2019-01-20T00:49:45.060Z,1008.6
2019-01-20T00:50:47.102Z,1008.6
2019-01-20T00:51:49.119Z,1008.6
2019-01-20T00:52:51.145Z,1008.5
2019-01-20T00:53:53.161Z,1008.6
2019-01-20T00:54:55.218Z,1008.7
2019-01-20T00:55:57.232Z,1008.6
2019-01-20T00:56:59.545Z,1008.7
2019-01-20T00:58:01.609Z,1008.6
2019-01-20T00:59:03.644Z,1008.6
2019-01-20T01:00:06.015Z,1008.6
2019-01-20T01:01:08.208Z,1008.6
2019-01-20T01:02:10.220Z,1008.6
2019-01-20T01:03:12.243Z,1008.6
2019-01-20T01:04:14.263Z,1008.7
2019-01-20T01:05:16.683Z,1008.6
2019-01-20T01:06:19.375Z,1008.6
2019-01-20T01:07:21.389Z,1008.6
2019-01-20T01:08:23.402Z,1008.7
2019-01-20T01:09:25.813Z,1008.7
2019-01-20T01:10:27.889Z,1008.7
2019-01-20T01:11:32.111Z,1008.7
2019-01-20T01:12:34.161Z,1008.7
2019-01-20T01:13:36.176Z,1008.7
2019-01-20T01:14:38.189Z,1008.7
2019-01-20T01:15:40.219Z,1008.7
2019-01-20T01:16:42.230Z,1008.6
2019-01-20T01:17:44.249Z,1008.6
2019-01-20T01:18:46.267Z,1008.6
2019-01-20T01:19:48.290Z,1008.6
2019-01-20T01:20:50.295Z,1008.6
2019-01-20T01:21:52.323Z,1008.6
2019-01-20T01:22:54.343Z,1008.5
2019-01-20T01:23:56.350Z,1008.6
2019-01-20T01:24:58.431Z,1008.5
2019-01-20T01:26:00.440Z,1008.5
2019-01-20T01:27:02.469Z,1008.5
2019-01-20T01:28:04.484Z,1008.5
2019-01-20T01:29:06.540Z,1008.5
2019-01-20T01:30:08.554Z,1008.5
2019-01-20T01:31:10.577Z,1008.5
2019-01-20T01:32:12.606Z,1008.5
2019-01-20T01:33:14.611Z,1008.6
2019-01-20T01:34:16.683Z,1008.6
2019-01-20T01:35:18.718Z,1008.6
2019-01-20T01:36:21.427Z,1008.6
2019-01-20T01:37:23.463Z,1008.6
2019-01-20T01:38:25.471Z,1008.6
2019-01-20T01:39:27.551Z,1008.6
2019-01-20T01:40:29.594Z,1008.6
2019-01-20T01:41:38.838Z,1008.6
2019-01-20T01:42:41.245Z,1008.6
2019-01-20T01:43:43.263Z,1008.6
2019-01-20T01:44:45.275Z,1008.5
2019-01-20T01:45:47.307Z,1008.5
2019-01-20T01:46:49.322Z,1008.6
2019-01-20T01:47:51.333Z,1008.6
2019-01-20T01:48:53.745Z,1008.6
2019-01-20T01:49:55.748Z,1008.6
2019-01-20T01:50:57.799Z,1008.6
2019-01-20T01:52:00.132Z,1008.6
2019-01-20T01:53:02.169Z,1008.6
2019-01-20T01:54:04.742Z,1008.6
2019-01-20T01:55:06.766Z,1008.6
2019-01-20T01:56:09.073Z,1008.6
2019-01-20T01:57:11.397Z,1008.5
2019-01-20T01:58:13.432Z,1008.5
2019-01-20T01:59:15.827Z,1008.5
2019-01-20T02:00:17.843Z,1008.5
2019-01-20T02:01:19.865Z,1008.6
2019-01-20T02:02:21.891Z,1008.5
2019-01-20T02:03:23.906Z,1008.5
2019-01-20T02:04:25.931Z,1008.6
2019-01-20T02:05:27.953Z,1008.5
2019-01-20T02:06:29.956Z,1008.5
2019-01-20T02:07:31.983Z,1008.5
2019-01-20T02:08:33.997Z,1008.6
2019-01-20T02:09:36.010Z,1008.5
2019-01-20T02:10:38.030Z,1008.6
2019-01-20T02:11:47.204Z,1008.5
2019-01-20T02:12:49.247Z,1008.6
2019-01-20T02:13:51.265Z,1008.6
2019-01-20T02:14:53.293Z,1008.6
2019-01-20T02:15:55.321Z,1008.5
2019-01-20T02:16:57.726Z,1008.6
2019-01-20T02:17:59.756Z,1008.6
2019-01-20T02:19:02.062Z,1008.6
2019-01-20T02:20:04.463Z,1008.6
2019-01-20T02:21:06.478Z,1008.6
2019-01-20T02:22:08.503Z,1008.6
2019-01-20T02:23:10.509Z,1008.6
2019-01-20T02:24:12.531Z,1008.5
2019-01-20T02:25:14.848Z,1008.5
2019-01-20T02:26:16.868Z,1008.5
2019-01-20T02:27:19.263Z,1008.5
2019-01-20T02:28:21.572Z,1008.5
2019-01-20T02:29:23.594Z,1008.6
2019-01-20T02:30:25.610Z,1008.6
2019-01-20T02:31:28.313Z,1008.6
2019-01-20T02:32:30.712Z,1008.6
2019-01-20T02:33:32.734Z,1008.6
2019-01-20T02:34:35.036Z,1008.6
2019-01-20T02:35:37.074Z,1008.7
2019-01-20T02:36:39.369Z,1008.6
2019-01-20T02:37:41.414Z,1008.6
2019-01-20T02:38:43.754Z,1008.6
2019-01-20T02:39:45.770Z,1008.7
2019-01-20T02:40:47.833Z,1008.6
2019-01-20T02:41:55.499Z,1008.6
2019-01-20T02:42:58.189Z,1008.7
2019-01-20T02:44:00.222Z,1008.6
2019-01-20T02:45:02.337Z,1008.6
2019-01-20T02:46:04.382Z,1008.6
2019-01-20T02:47:06.420Z,1008.6
2019-01-20T02:48:08.442Z,1008.6
2019-01-20T02:49:10.457Z,1008.6
2019-01-20T02:50:12.770Z,1008.6
2019-01-20T02:51:14.812Z,1008.6
2019-01-20T02:52:16.850Z,1008.6
2019-01-20T02:53:18.877Z,1008.6
2019-01-20T02:54:20.896Z,1008.7
2019-01-20T02:55:22.937Z,1008.6
2019-01-20T02:56:24.951Z,1008.7
2019-01-20T02:57:26.973Z,1008.6
2019-01-20T02:58:28.999Z,1008.6
2019-01-20T02:59:31.307Z,1008.6
2019-01-20T03:00:33.419Z,1008.6
2019-01-20T03:01:35.845Z,1008.6
2019-01-20T03:02:37.870Z,1008.7
2019-01-20T03:03:40.166Z,1008.6
2019-01-20T03:04:42.483Z,1008.6
2019-01-20T03:05:45.167Z,1008.7
2019-01-20T03:06:47.261Z,1008.6
2019-01-20T03:07:49.979Z,1008.6
2019-01-20T03:08:52.017Z,1008.6
2019-01-20T03:09:54.043Z,1008.7
2019-01-20T03:10:56.081Z,1008.6
2019-01-20T03:12:03.904Z,1008.6
2019-01-20T03:13:06.487Z,1008.6
2019-01-20T03:14:08.519Z,1008.7
2019-01-20T03:15:10.540Z,1008.6
2019-01-20T03:16:12.936Z,1008.7
2019-01-20T03:17:14.953Z,1008.6
2019-01-20T03:18:16.986Z,1008.6
2019-01-20T03:19:19.019Z,1008.6
2019-01-20T03:20:21.050Z,1008.6
2019-01-20T03:21:23.401Z,1008.6
2019-01-20T03:22:25.406Z,1008.7
2019-01-20T03:23:27.429Z,1008.6
2019-01-20T03:24:29.743Z,1008.6
2019-01-20T03:25:32.053Z,1008.6
2019-01-20T03:26:34.074Z,1008.6
2019-01-20T03:27:36.402Z,1008.6
2019-01-20T03:28:38.410Z,1008.6
2019-01-20T03:29:40.443Z,1008.6
2019-01-20T03:30:42.504Z,1008.6
2019-01-20T03:31:44.821Z,1008.6
2019-01-20T03:32:46.859Z,1008.5
2019-01-20T03:33:49.350Z,1008.5
2019-01-20T03:34:51.372Z,1008.6
2019-01-20T03:35:53.392Z,1008.5
2019-01-20T03:36:55.432Z,1008.6
2019-01-20T03:37:57.447Z,1008.5
2019-01-20T03:38:59.507Z,1008.6
2019-01-20T03:40:01.559Z,1008.6
2019-01-20T03:41:03.889Z,1008.6
2019-01-20T03:42:12.425Z,1008.6
2019-01-20T03:43:14.856Z,1008.6
2019-01-20T03:44:17.252Z,1008.6
2019-01-20T03:45:19.294Z,1008.5
2019-01-20T03:46:21.327Z,1008.5
2019-01-20T03:47:23.344Z,1008.5
2019-01-20T03:48:25.656Z,1008.6
2019-01-20T03:49:27.683Z,1008.5
2019-01-20T03:50:29.703Z,1008.5
2019-01-20T03:51:31.718Z,1008.5
2019-01-20T03:52:33.750Z,1008.5
2019-01-20T03:53:35.765Z,1008.5
2019-01-20T03:54:38.108Z,1008.5
2019-01-20T03:55:40.216Z,1008.5
2019-01-20T03:56:42.247Z,1008.6
2019-01-20T03:57:44.287Z,1008.5
2019-01-20T03:58:46.367Z,1008.5
2019-01-20T03:59:48.387Z,1008.5
2019-01-20T04:00:50.398Z,1008.5
2019-01-20T04:01:52.430Z,1008.5
2019-01-20T04:02:54.436Z,1008.5
2019-01-20T04:03:56.901Z,1008.5
2019-01-20T04:04:58.937Z,1008.5
2019-01-20T04:06:00.958Z,1008.5
2019-01-20T04:07:02.982Z,1008.5
2019-01-20T04:08:04.992Z,1008.5
2019-01-20T04:09:07.305Z,1008.5
2019-01-20T04:10:09.339Z,1008.5
2019-01-20T04:11:11.345Z,1008.5
2019-01-20T04:12:21.111Z,1008.5
2019-01-20T04:13:23.552Z,1008.6
2019-01-20T04:14:25.578Z,1008.5
2019-01-20T04:15:27.583Z,1008.6
2019-01-20T04:16:29.620Z,1008.6
2019-01-20T04:17:31.635Z,1008.6
2019-01-20T04:18:33.687Z,1008.6
2019-01-20T04:19:35.716Z,1008.6
2019-01-20T04:20:38.020Z,1008.6
2019-01-20T04:21:40.038Z,1008.6
2019-01-20T04:22:42.065Z,1008.6
2019-01-20T04:23:44.086Z,1008.6
2019-01-20T04:24:46.227Z,1008.7
2019-01-20T04:25:48.679Z,1008.6
2019-01-20T04:26:50.973Z,1008.6
2019-01-20T04:27:52.988Z,1008.6
2019-01-20T04:28:55.304Z,1008.6
2019-01-20T04:29:57.336Z,1008.6
2019-01-20T04:30:59.643Z,1008.6
2019-01-20T04:32:01.670Z,1008.6
2019-01-20T04:33:03.778Z,1008.6
2019-01-20T04:34:06.093Z,1008.6
2019-01-20T04:35:08.143Z,1008.5
2019-01-20T04:36:10.199Z,1008.5
2019-01-20T04:37:12.901Z,1008.5
2019-01-20T04:38:14.927Z,1008.5
2019-01-20T04:39:17.024Z,1008.5
2019-01-20T04:40:19.329Z,1008.5
2019-01-20T04:41:21.358Z,1008.5
2019-01-20T04:42:29.488Z,1008.5
2019-01-20T04:43:31.529Z,1008.5
2019-01-20T04:44:33.836Z,1008.5
2019-01-20T04:45:35.863Z,1008.5
2019-01-20T04:46:38.182Z,1008.5
2019-01-20T04:47:40.199Z,1008.5
2019-01-20T04:48:42.498Z,1008.5
2019-01-20T04:49:44.529Z,1008.5
2019-01-20T04:50:46.547Z,1008.5
2019-01-20T04:51:48.951Z,1008.5
2019-01-20T04:52:50.992Z,1008.5
2019-01-20T04:53:53.023Z,1008.5
2019-01-20T04:54:55.052Z,1008.5
2019-01-20T04:55:57.082Z,1008.5
2019-01-20T04:56:59.098Z,1008.5
2019-01-20T04:58:01.429Z,1008.5
2019-01-20T04:59:04.036Z,1008.5
2019-01-20T05:00:06.046Z,1008.5
2019-01-20T05:01:08.066Z,1008.5
2019-01-20T05:02:10.098Z,1008.5
2019-01-20T05:03:12.115Z,1008.5
2019-01-20T05:04:14.802Z,1008.5
2019-01-20T05:05:16.833Z,1008.5
2019-01-20T05:06:19.137Z,1008.5
2019-01-20T05:07:21.435Z,1008.4
2019-01-20T05:08:23.476Z,1008.4
2019-01-20T05:09:25.486Z,1008.4
2019-01-20T05:10:27.784Z,1008.4
2019-01-20T05:11:30.083Z,1008.4
2019-01-20T05:12:38.074Z,1008.4
2019-01-20T05:13:40.430Z,1008.4
2019-01-20T05:14:42.459Z,1008.5
2019-01-20T05:15:44.503Z,1008.4
2019-01-20T05:16:46.507Z,1008.4
2019-01-20T05:17:48.541Z,1008.4
2019-01-20T05:18:50.843Z,1008.5
2019-01-20T05:19:52.867Z,1008.5
2019-01-20T05:20:55.174Z,1008.5
2019-01-20T05:21:57.488Z,1008.5
2019-01-20T05:22:59.796Z,1008.5
2019-01-20T05:24:02.111Z,1008.5
2019-01-20T05:25:04.199Z,1008.5
2019-01-20T05:26:06.230Z,1008.5
2019-01-20T05:27:08.251Z,1008.4
2019-01-20T05:28:10.278Z,1008.4
2019-01-20T05:29:12.313Z,1008.4
2019-01-20T05:30:14.333Z,1008.5
2019-01-20T05:31:16.367Z,1008.4
2019-01-20T05:32:18.954Z,1008.5
2019-01-20T05:33:21.368Z,1008.4
2019-01-20T05:34:23.960Z,1008.5
2019-01-20T05:35:26.039Z,1008.5
2019-01-20T05:36:28.081Z,1008.5
2019-01-20T05:37:30.092Z,1008.5
2019-01-20T05:38:32.126Z,1008.5
2019-01-20T05:39:34.142Z,1008.5
2019-01-20T05:40:36.151Z,1008.4
2019-01-20T05:41:38.173Z,1008.5
2019-01-20T05:42:46.805Z,1008.5
2019-01-20T05:43:49.607Z,1008.5
2019-01-20T05:44:51.624Z,1008.5
2019-01-20T05:45:54.006Z,1008.5
2019-01-20T05:46:56.026Z,1008.5
2019-01-20T05:47:58.434Z,1008.5
2019-01-20T05:49:00.515Z,1008.5
2019-01-20T05:50:02.562Z,1008.5
2019-01-20T05:51:04.610Z,1008.5
2019-01-20T05:52:06.617Z,1008.5
2019-01-20T05:53:08.641Z,1008.5
2019-01-20T05:54:10.678Z,1008.5
2019-01-20T05:55:12.764Z,1008.5
2019-01-20T05:56:16.042Z,1008.5
2019-01-20T05:57:18.455Z,1008.5
2019-01-20T05:58:20.537Z,1008.5
2019-01-20T05:59:22.861Z,1008.5
2019-01-20T06:00:24.891Z,1008.5
2019-01-20T06:01:27.585Z,1008.5
2019-01-20T06:02:29.622Z,1008.5
2019-01-20T06:03:31.694Z,1008.5
2019-01-20T06:04:33.721Z,1008.5
2019-01-20T06:05:35.733Z,1008.5
2019-01-20T06:06:37.763Z,1008.5
2019-01-20T06:07:40.064Z,1008.5
2019-01-20T06:08:42.076Z,1008.5
2019-01-20T06:09:44.097Z,1008.5
2019-01-20T06:10:46.126Z,1008.5
2019-01-20T06:11:48.133Z,1008.5
2019-01-20T06:12:54.653Z,1008.5
2019-01-20T06:13:56.990Z,1008.4
2019-01-20T06:14:59.278Z,1008.5
2019-01-20T06:16:01.526Z,1008.5
2019-01-20T06:17:03.559Z,1008.5
2019-01-20T06:18:05.605Z,1008.5
2019-01-20T06:19:07.628Z,1008.5
2019-01-20T06:20:10.253Z,1008.5
2019-01-20T06:21:12.275Z,1008.5
2019-01-20T06:22:14.297Z,1008.5
2019-01-20T06:23:16.333Z,1008.6
2019-01-20T06:24:18.615Z,1008.6
2019-01-20T06:25:20.644Z,1008.5
2019-01-20T06:26:23.371Z,1008.7
2019-01-20T06:27:25.387Z,1008.6
2019-01-20T06:28:27.396Z,1008.6
2019-01-20T06:29:29.420Z,1008.6
2019-01-20T06:30:31.430Z,1008.6
2019-01-20T06:31:33.443Z,1008.7
2019-01-20T06:32:35.470Z,1008.7
2019-01-20T06:33:37.485Z,1008.7
2019-01-20T06:34:39.537Z,1008.7
2019-01-20T06:35:41.574Z,1008.7
2019-01-20T06:36:43.600Z,1008.7
2019-01-20T06:37:45.619Z,1008.7
2019-01-20T06:38:47.919Z,1008.7
2019-01-20T06:39:49.965Z,1008.7
2019-01-20T06:40:51.985Z,1008.7
2019-01-20T06:41:54.292Z,1008.7
2019-01-20T06:43:02.698Z,1008.7
2019-01-20T06:44:05.453Z,1008.7
2019-01-20T06:45:07.514Z,1008.7
2019-01-20T06:46:09.634Z,1008.7
2019-01-20T06:47:11.731Z,1008.7
2019-01-20T06:48:14.234Z,1008.7
2019-01-20T06:49:16.317Z,1008.6
2019-01-20T06:50:18.812Z,1008.7
2019-01-20T06:51:21.286Z,1008.7
2019-01-20T06:52:23.399Z,1008.7
2019-01-20T06:53:25.493Z,1008.7
2019-01-20T06:54:27.897Z,1008.7
2019-01-20T06:55:29.999Z,1008.8
2019-01-20T06:56:32.085Z,1008.7
2019-01-20T06:57:34.220Z,1008.8
2019-01-20T06:58:36.322Z,1008.8
2019-01-20T06:59:38.437Z,1008.8
2019-01-20T07:00:40.553Z,1008.8
2019-01-20T07:01:42.695Z,1008.9
2019-01-20T07:02:44.809Z,1008.9
2019-01-20T07:03:46.998Z,1008.9
2019-01-20T07:04:49.109Z,1008.9
2019-01-20T07:05:51.233Z,1009
2019-01-20T07:06:53.646Z,1009
2019-01-20T07:07:55.791Z,1009
2019-01-20T07:08:57.901Z,1009
2019-01-20T07:10:00.162Z,1009.1
2019-01-20T07:11:02.447Z,1009.1
2019-01-20T07:12:04.841Z,1009
2019-01-20T07:13:11.481Z,1009
2019-01-20T07:14:13.914Z,1009.1
2019-01-20T07:15:16.020Z,1009.1
2019-01-20T07:16:18.183Z,1009.1
2019-01-20T07:17:20.307Z,1009.2
2019-01-20T07:18:22.426Z,1009.1
2019-01-20T07:19:24.551Z,1009.2
2019-01-20T07:20:26.715Z,1009.2
2019-01-20T07:21:28.836Z,1009.1
2019-01-20T07:22:30.928Z,1009.2
2019-01-20T07:23:33.316Z,1009.2
2019-01-20T07:24:35.431Z,1009.2
2019-01-20T07:25:37.545Z,1009.3
2019-01-20T07:26:39.649Z,1009.3
2019-01-20T07:27:41.762Z,1009.3
2019-01-20T07:28:43.884Z,1009.3
2019-01-20T07:29:45.970Z,1009.3
2019-01-20T07:30:48.092Z,1009.3
2019-01-20T07:31:50.195Z,1009.3
2019-01-20T07:32:52.295Z,1009.3
2019-01-20T07:33:54.785Z,1009.3
2019-01-20T07:34:56.908Z,1009.3
2019-01-20T07:35:59.005Z,1009.3
2019-01-20T07:37:01.113Z,1009.3
2019-01-20T07:38:03.219Z,1009.3
2019-01-20T07:39:05.699Z,1009.3
2019-01-20T07:40:07.818Z,1009.3
2019-01-20T07:41:09.920Z,1009.3
2019-01-20T07:42:12.027Z,1009.3
2019-01-20T07:43:17.409Z,1009.4
2019-01-20T07:44:19.531Z,1009.4
2019-01-20T07:45:21.635Z,1009.4
2019-01-20T07:46:24.136Z,1009.4
2019-01-20T07:47:26.247Z,1009.4
2019-01-20T07:48:28.342Z,1009.4
2019-01-20T07:49:30.445Z,1009.4
2019-01-20T07:50:32.561Z,1009.4
2019-01-20T07:51:34.650Z,1009.4
2019-01-20T07:52:36.757Z,1009.4
2019-01-20T07:53:38.870Z,1009.5
2019-01-20T07:54:40.977Z,1009.5
2019-01-20T07:55:43.452Z,1009.5
2019-01-20T07:56:45.581Z,1009.5
2019-01-20T07:57:48.084Z,1009.5
2019-01-20T07:58:50.209Z,1009.5
2019-01-20T07:59:52.299Z,1009.5
2019-01-20T08:00:54.415Z,1009.5
2019-01-20T08:01:56.525Z,1009.5
2019-01-20T08:02:58.625Z,1009.5
2019-01-20T08:04:00.762Z,1009.5
2019-01-20T08:05:03.439Z,1009.5
2019-01-20T08:06:05.553Z,1009.6
2019-01-20T08:07:07.667Z,1009.6
2019-01-20T08:08:09.791Z,1009.6
2019-01-20T08:09:11.900Z,1009.6
2019-01-20T08:10:14.303Z,1009.6
2019-01-20T08:11:16.438Z,1009.6
2019-01-20T08:12:23.857Z,1009.6
2019-01-20T08:13:25.994Z,1009.6
2019-01-20T08:14:28.116Z,1009.6
2019-01-20T08:15:30.240Z,1009.6
2019-01-20T08:16:32.354Z,1009.6
2019-01-20T08:17:34.497Z,1009.6
2019-01-20T08:18:36.621Z,1009.6
2019-01-20T08:19:39.032Z,1009.7
2019-01-20T08:20:41.592Z,1009.6
2019-01-20T08:21:43.709Z,1009.6
2019-01-20T08:22:45.868Z,1009.6
2019-01-20T08:24:07.190Z,1009.6
2019-01-20T08:25:09.230Z,1009.6
2019-01-20T08:26:11.323Z,1009.6
2019-01-20T08:27:13.342Z,1009.6
2019-01-20T08:28:15.373Z,1009.6
2019-01-20T08:29:17.680Z,1009.7
2019-01-20T08:30:20.110Z,1009.7
2019-01-20T08:31:22.414Z,1009.7
2019-01-20T08:32:24.446Z,1009.7
2019-01-20T08:33:26.527Z,1009.7
2019-01-20T08:34:28.589Z,1009.7
2019-01-20T08:35:30.621Z,1009.7
2019-01-20T08:36:32.631Z,1009.7
2019-01-20T08:37:34.678Z,1009.7
2019-01-20T08:38:37.078Z,1009.7
2019-01-20T08:39:39.094Z,1009.7
2019-01-20T08:40:41.108Z,1009.7
2019-01-20T08:41:43.128Z,1009.7
2019-01-20T08:42:45.148Z,1009.7
2019-01-20T08:43:47.243Z,1009.7
2019-01-20T08:44:49.268Z,1009.7
2019-01-20T08:45:51.279Z,1009.7
2019-01-20T08:46:53.307Z,1009.8
2019-01-20T08:47:55.331Z,1009.7
2019-01-20T08:48:58.976Z,1009.8
2019-01-20T08:50:00.999Z,1009.7
2019-01-20T08:51:03.074Z,1009.7
2019-01-20T08:52:05.370Z,1009.8
2019-01-20T08:53:07.425Z,1009.8
2019-01-20T08:54:09.831Z,1009.7
2019-01-20T08:55:12.340Z,1009.8
2019-01-20T08:56:14.448Z,1009.8
2019-01-20T08:57:16.588Z,1009.8
2019-01-20T08:58:18.708Z,1009.9
2019-01-20T08:59:20.801Z,1009.9
2019-01-20T09:00:22.867Z,1009.9
2019-01-20T09:01:24.940Z,1009.9
2019-01-20T09:02:26.963Z,1009.9
2019-01-20T09:03:28.979Z,1009.9
2019-01-20T09:04:30.994Z,1009.9
2019-01-20T09:05:33.294Z,1010
2019-01-20T09:06:35.735Z,1010
2019-01-20T09:07:37.825Z,1010
2019-01-20T09:08:39.870Z,1010
2019-01-20T09:09:41.916Z,1010.1
2019-01-20T09:10:43.935Z,1010
2019-01-20T09:11:45.944Z,1010
2019-01-20T09:12:47.984Z,1010
2019-01-20T09:13:50.007Z,1010
2019-01-20T09:14:52.057Z,1010
2019-01-20T09:15:54.084Z,1010.1
2019-01-20T09:16:56.120Z,1010.1
2019-01-20T09:17:58.148Z,1010.1
2019-01-20T09:19:00.188Z,1010
2019-01-20T09:20:02.220Z,1010.1
2019-01-20T09:21:04.302Z,1010.1
2019-01-20T09:22:06.603Z,1010.1
2019-01-20T09:23:08.934Z,1010.1
2019-01-20T09:24:11.026Z,1010.1
2019-01-20T09:25:13.045Z,1010.1
2019-01-20T09:26:15.477Z,1010.2
2019-01-20T09:27:17.498Z,1010.1
2019-01-20T09:28:19.513Z,1010.2
2019-01-20T09:29:21.540Z,1010.2
2019-01-20T09:30:23.567Z,1010.2
2019-01-20T09:31:25.587Z,1010.2
2019-01-20T09:32:27.609Z,1010.2
2019-01-20T09:33:29.636Z,1010.2
2019-01-20T09:34:31.938Z,1010.2
2019-01-20T09:35:34.306Z,1010.3
2019-01-20T09:36:36.649Z,1010.3
2019-01-20T09:37:38.679Z,1010.3
2019-01-20T09:38:41.428Z,1010.3
2019-01-20T09:39:43.847Z,1010.3
2019-01-20T09:40:45.871Z,1010.3
2019-01-20T09:41:47.896Z,1010.3
2019-01-20T09:42:49.964Z,1010.3
2019-01-20T09:43:52.338Z,1010.3
2019-01-20T09:44:54.455Z,1010.3
2019-01-20T09:45:56.564Z,1010.3
2019-01-20T09:46:59.039Z,1010.3
2019-01-20T09:48:01.054Z,1010.3
2019-01-20T09:49:03.122Z,1010.3
2019-01-20T09:50:05.229Z,1010.3
2019-01-20T09:51:07.651Z,1010.3
2019-01-20T09:52:09.776Z,1010.3
2019-01-20T09:53:11.907Z,1010.3
2019-01-20T09:54:14.061Z,1010.3
2019-01-20T09:55:16.555Z,1010.3
2019-01-20T09:56:19.013Z,1010.3
2019-01-20T09:57:21.438Z,1010.3
2019-01-20T09:58:23.837Z,1010.3
2019-01-20T09:59:26.658Z,1010.3
2019-01-20T10:00:28.764Z,1010.3
2019-01-20T10:01:30.880Z,1010.3
2019-01-20T10:02:32.993Z,1010.3
2019-01-20T10:03:35.108Z,1010.3
2019-01-20T10:04:37.199Z,1010.4
2019-01-20T10:05:39.319Z,1010.3
2019-01-20T10:06:41.512Z,1010.3
2019-01-20T10:07:43.612Z,1010.4
2019-01-20T10:08:45.734Z,1010.4
2019-01-20T10:09:47.843Z,1010.3
2019-01-20T10:10:49.950Z,1010.4
2019-01-20T10:11:52.094Z,1010.3
2019-01-20T10:12:54.235Z,1010.4
2019-01-20T10:13:56.734Z,1010.4
2019-01-20T10:14:59.132Z,1010.4
2019-01-20T10:16:01.296Z,1010.4
2019-01-20T10:17:03.442Z,1010.3
2019-01-20T10:18:05.639Z,1010.3
2019-01-20T10:19:08.120Z,1010.3
2019-01-20T10:20:10.241Z,1010.4
2019-01-20T10:21:12.342Z,1010.4
2019-01-20T10:22:14.496Z,1010.3
2019-01-20T10:23:16.987Z,1010.4
2019-01-20T10:24:19.088Z,1010.4
2019-01-20T10:25:21.500Z,1010.4
2019-01-20T10:26:23.893Z,1010.4
2019-01-20T10:27:26.022Z,1010.5
2019-01-20T10:28:28.523Z,1010.5
2019-01-20T10:29:30.632Z,1010.5
2019-01-20T10:30:32.937Z,1010.5
2019-01-20T10:31:35.746Z,1010.5
2019-01-20T10:32:37.882Z,1010.5
2019-01-20T10:33:40.275Z,1010.5
2019-01-20T10:34:42.403Z,1010.5
2019-01-20T10:35:44.514Z,1010.5
2019-01-20T10:36:46.634Z,1010.4
2019-01-20T10:37:48.740Z,1010.4
2019-01-20T10:38:50.858Z,1010.5
2019-01-20T10:39:52.970Z,1010.5
2019-01-20T10:40:55.118Z,1010.5
2019-01-20T10:41:57.245Z,1010.5
2019-01-20T10:42:59.624Z,1010.4
2019-01-20T10:44:02.663Z,1010.5
2019-01-20T10:45:04.772Z,1010.4
2019-01-20T10:46:06.896Z,1010.4
2019-01-20T10:47:08.996Z,1010.5
2019-01-20T10:48:11.104Z,1010.5
2019-01-20T10:49:13.218Z,1010.5
2019-01-20T10:50:15.310Z,1010.5
2019-01-20T10:51:17.442Z,1010.5
2019-01-20T10:52:19.944Z,1010.5
2019-01-20T10:53:22.058Z,1010.5
2019-01-20T10:54:24.150Z,1010.5
2019-01-20T10:55:26.726Z,1010.5
2019-01-20T10:56:29.289Z,1010.5
2019-01-20T10:57:31.396Z,1010.5
2019-01-20T10:58:33.524Z,1010.6
2019-01-20T10:59:35.624Z,1010.6
2019-01-20T11:00:37.794Z,1010.6
2019-01-20T11:01:39.938Z,1010.6
2019-01-20T11:02:42.043Z,1010.6
2019-01-20T11:03:44.450Z,1010.6
2019-01-20T11:04:47.199Z,1010.6
2019-01-20T11:05:49.306Z,1010.6
2019-01-20T11:06:51.422Z,1010.6
2019-01-20T11:07:53.936Z,1010.6
2019-01-20T11:08:56.050Z,1010.6
2019-01-20T11:09:58.147Z,1010.7
2019-01-20T11:11:00.278Z,1010.7
2019-01-20T11:12:02.388Z,1010.7
2019-01-20T11:13:04.501Z,1010.7
2019-01-20T11:14:10.109Z,1010.6
2019-01-20T11:15:12.974Z,1010.6
2019-01-20T11:16:15.451Z,1010.6
2019-01-20T11:17:17.887Z,1010.6
2019-01-20T11:18:20.005Z,1010.6
2019-01-20T11:19:22.101Z,1010.6
2019-01-20T11:20:24.256Z,1010.6
2019-01-20T11:21:26.771Z,1010.6
2019-01-20T11:22:29.209Z,1010.6
2019-01-20T11:23:31.330Z,1010.6
2019-01-20T11:24:33.465Z,1010.6
2019-01-20T11:25:35.575Z,1010.5
2019-01-20T11:26:37.678Z,1010.5
2019-01-20T11:27:40.103Z,1010.5
2019-01-20T11:28:42.202Z,1010.5
2019-01-20T11:29:44.345Z,1010.5
2019-01-20T11:30:46.487Z,1010.5
2019-01-20T11:31:48.579Z,1010.5
2019-01-20T11:32:50.705Z,1010.5
2019-01-20T11:33:53.166Z,1010.5
2019-01-20T11:34:55.586Z,1010.5
2019-01-20T11:35:59.782Z,1010.5
2019-01-20T11:37:01.913Z,1010.5
2019-01-20T11:38:04.050Z,1010.4
2019-01-20T11:39:06.179Z,1010.4
2019-01-20T11:40:08.853Z,1010.4
2019-01-20T11:41:11.249Z,1010.4
2019-01-20T11:42:13.397Z,1010.4
2019-01-20T11:43:15.793Z,1010.4
2019-01-20T11:44:18.194Z,1010.4
2019-01-20T11:45:20.917Z,1010.4
2019-01-20T11:46:23.013Z,1010.5
2019-01-20T11:47:25.615Z,1010.4
2019-01-20T11:48:27.799Z,1010.4
2019-01-20T11:49:30.271Z,1010.5
2019-01-20T11:50:32.781Z,1010.5
2019-01-20T11:51:35.413Z,1010.5
2019-01-20T11:52:37.546Z,1010.5
2019-01-20T11:53:39.699Z,1010.5
2019-01-20T11:54:41.821Z,1010.5
2019-01-20T11:55:44.028Z,1010.5
2019-01-20T11:56:46.203Z,1010.5
2019-01-20T11:57:48.580Z,1010.5
2019-01-20T11:58:50.726Z,1010.5
2019-01-20T11:59:52.837Z,1010.5
2019-01-20T12:00:54.971Z,1010.6
2019-01-20T12:01:57.071Z,1010.5
2019-01-20T12:02:59.198Z,1010.5
2019-01-20T12:04:01.685Z,1010.5
2019-01-20T12:05:04.081Z,1010.5
2019-01-20T12:06:06.483Z,1010.5
2019-01-20T12:07:08.600Z,1010.5
2019-01-20T12:08:10.710Z,1010.6
2019-01-20T12:09:12.818Z,1010.6
2019-01-20T12:10:15.219Z,1010.5
2019-01-20T12:11:17.796Z,1010.6
2019-01-20T12:12:19.919Z,1010.6
2019-01-20T12:13:22.361Z,1010.6
2019-01-20T12:14:24.750Z,1010.6
2019-01-20T12:15:27.364Z,1010.6
2019-01-20T12:16:29.759Z,1010.6
2019-01-20T12:17:31.859Z,1010.6
2019-01-20T12:18:33.982Z,1010.6
2019-01-20T12:19:36.107Z,1010.6
2019-01-20T12:20:38.225Z,1010.6
2019-01-20T12:21:40.608Z,1010.6
2019-01-20T12:22:42.729Z,1010.7
2019-01-20T12:23:44.846Z,1010.7
2019-01-20T12:24:47.015Z,1010.7
2019-01-20T12:25:49.399Z,1010.7
2019-01-20T12:26:51.639Z,1010.7
2019-01-20T12:27:53.766Z,1010.7
2019-01-20T12:28:55.864Z,1010.7
2019-01-20T12:29:57.993Z,1010.7
2019-01-20T12:31:00.096Z,1010.7
2019-01-20T12:32:02.205Z,1010.7
2019-01-20T12:33:04.316Z,1010.7
2019-01-20T12:34:06.443Z,1010.6
2019-01-20T12:35:08.551Z,1010.6
2019-01-20T12:36:10.671Z,1010.7
2019-01-20T12:37:13.067Z,1010.7
2019-01-20T12:38:15.167Z,1010.7
2019-01-20T12:39:17.312Z,1010.7
2019-01-20T12:40:19.866Z,1010.7
2019-01-20T12:41:21.965Z,1010.6
2019-01-20T12:42:24.087Z,1010.6
2019-01-20T12:43:26.204Z,1010.7
2019-01-20T12:44:31.777Z,1010.6
2019-01-20T12:45:34.188Z,1010.6
2019-01-20T12:46:36.294Z,1010.6
2019-01-20T12:47:38.402Z,1010.6
2019-01-20T12:48:40.517Z,1010.7
2019-01-20T12:49:42.635Z,1010.7
2019-01-20T12:50:44.739Z,1010.7
2019-01-20T12:51:46.871Z,1010.6
2019-01-20T12:52:48.995Z,1010.6
2019-01-20T12:53:51.391Z,1010.6
2019-01-20T12:54:53.832Z,1010.6
2019-01-20T12:55:55.938Z,1010.7
2019-01-20T12:56:58.055Z,1010.7
2019-01-20T12:58:00.155Z,1010.7